Time;durP1;ratioP1;P1;durP2;ratioP2;P2;SDS_P1;SDS_P2;PMS_P1;PMS_P2;Temp;Humidity;BMP_temperature;BMP_pressure;BME280_temperature;BME280_humidity;BME280_pressure;Samples;Min_cycle;Max_cycle;Signal;HPM_P1;HPM_P2
2022/09/30 00:01:53;;;;;;;12.13;7.60;;;11.40;99.90;;;;;;5051897;28;21022;-61
2022/09/30 00:04:21;;;;;;;11.53;10.23;;;11.40;99.90;;;;;;5051772;28;20494;-61
2022/09/30 00:06:49;;;;;;;11.87;8.80;;;;;;;;;;5051028;28;20506;-61
2022/09/30 00:09:16;;;;;;;10.77;8.67;;;11.40;99.90;;;;;;5049615;28;20480;-61
2022/09/30 00:11:45;;;;;;;13.10;7.87;;;11.30;99.90;;;;;;5049997;28;20640;-62
2022/09/30 00:14:14;;;;;;;18.00;8.63;;;11.10;99.90;;;;;;5046500;28;20817;-61
2022/09/30 00:16:41;;;;;;;11.60;7.07;;;11.00;99.90;;;;;;5046784;28;20699;-61
2022/09/30 00:19:08;;;;;;;14.53;7.77;;;10.90;99.90;;;;;;5050626;28;20467;-60
2022/09/30 00:21:35;;;;;;;10.20;8.67;;;10.90;99.90;;;;;;5042937;28;20845;-61
2022/09/30 00:24:02;;;;;;;8.03;7.20;;;10.90;99.90;;;;;;5054634;28;20482;-61
2022/09/30 00:26:29;;;;;;;11.20;8.70;;;11.00;99.90;;;;;;5050284;28;20707;-61
2022/09/30 00:28:59;;;;;;;6.07;5.23;;;11.00;99.90;;;;;;5048381;28;21098;-61
2022/09/30 00:31:28;;;;;;;12.10;10.20;;;11.00;99.90;;;;;;5047627;28;20487;-62
2022/09/30 00:34:07;;;;;;;10.90;6.20;;;13.10;99.90;;;;;;5049140;28;20537;-62
2022/09/30 00:36:35;;;;;;;24.67;8.73;;;10.90;99.90;;;;;;5050066;28;20471;-61
2022/09/30 00:39:03;;;;;;;9.70;6.87;;;10.90;99.90;;;;;;5046257;28;20490;-61
2022/09/30 00:41:30;;;;;;;32.37;8.63;;;10.80;99.90;;;;;;5048502;28;20470;-61
2022/09/30 00:43:58;;;;;;;19.77;7.27;;;10.70;99.90;;;;;;5050387;28;20941;-61
2022/09/30 00:46:32;;;;;;;12.33;9.40;;;10.50;99.90;;;;;;5050314;28;20494;-61
2022/09/30 00:49:02;;;;;;;19.73;6.37;;;10.50;99.90;;;;;;5049529;28;20480;-61
2022/09/30 00:51:34;;;;;;;10.83;8.23;;;10.50;99.90;;;;;;5038884;28;20599;-61
2022/09/30 00:54:04;;;;;;;6.20;5.60;;;10.50;99.90;;;;;;5046856;28;20478;-60
2022/09/30 00:56:34;;;;;;;7.67;6.67;;;10.50;99.90;;;;;;5048863;28;20483;-60
2022/09/30 00:59:07;;;;;;;7.50;6.00;;;10.50;99.90;;;;;;5048444;28;20478;-60
2022/09/30 01:01:34;;;;;;;23.43;6.77;;;10.50;99.90;;;;;;5048125;28;20475;-60
2022/09/30 01:04:05;;;;;;;7.70;6.00;;;10.50;99.90;;;;;;5050569;28;20582;-60
2022/09/30 01:06:32;;;;;;;15.33;8.47;;;10.40;99.90;;;;;;5049251;28;20701;-60
2022/09/30 01:08:58;;;;;;;19.57;6.50;;;10.20;99.90;;;;;;5048753;28;20767;-60
2022/09/30 01:11:27;;;;;;;21.73;9.90;;;10.20;99.90;;;;;;5045644;28;20491;-59
2022/09/30 01:13:57;;;;;;;17.73;7.97;;;10.30;99.90;;;;;;5042327;28;20479;-61
2022/09/30 01:17:10;;;;;;;18.87;9.20;;;10.30;99.90;;;;;;5025787;28;20475;-61
2022/09/30 01:20:14;;;;;;;15.73;8.27;;;10.20;99.90;;;;;;5036854;28;20471;-62
2022/09/30 01:22:45;;;;;;;16.10;8.03;;;10.10;99.90;;;;;;5012194;28;20775;-60
2022/09/30 01:25:52;;;;;;;11.57;8.13;;;10.10;99.90;;;;;;5054230;28;21037;-62
2022/09/30 01:28:47;;;;;;;15.77;9.37;;;10.10;99.90;;;;;;5042507;28;20478;-61
2022/09/30 01:31:28;;;;;;;11.43;8.80;;;10.20;99.90;;;;;;5047299;28;21129;-61
2022/09/30 01:34:03;;;;;;;9.23;6.53;;;10.10;99.90;;;;;;5046169;28;20478;-61
2022/09/30 01:36:42;;;;;;;13.53;8.37;;;10.10;99.90;;;;;;5038012;28;20475;-60
2022/09/30 01:39:26;;;;;;;7.00;6.30;;;10.20;99.90;;;;;;5057821;28;20486;-61
2022/09/30 01:41:59;;;;;;;7.60;6.77;;;10.30;99.90;;;;;;5044772;28;20490;-61
2022/09/30 01:44:35;;;;;;;9.73;8.50;;;10.30;99.90;;;;;;5043451;28;20483;-61
2022/09/30 01:47:09;;;;;;;9.00;6.30;;;10.40;99.90;;;;;;5046453;28;20494;-61
2022/09/30 01:49:42;;;;;;;12.30;7.47;;;10.40;99.90;;;;;;5046504;28;20478;-62
2022/09/30 01:52:14;;;;;;;9.40;7.23;;;10.30;99.90;;;;;;5043227;28;20479;-61
2022/09/30 01:54:46;;;;;;;8.20;6.70;;;10.30;99.90;;;;;;5044837;28;20484;-60
2022/09/30 01:57:19;;;;;;;23.53;7.20;;;10.40;99.90;;;;;;5035144;28;20674;-60
2022/09/30 01:59:51;;;;;;;8.97;7.90;;;10.40;99.90;;;;;;5039732;28;21011;-60
2022/09/30 02:02:24;;;;;;;10.90;8.93;;;10.40;99.90;;;;;;5034639;28;20648;-60
2022/09/30 02:04:56;;;;;;;13.87;8.40;;;10.40;99.90;;;;;;5042772;28;21153;-59
2022/09/30 02:07:26;;;;;;;11.63;8.97;;;10.40;99.90;;;;;;5053872;28;20482;-60
2022/09/30 02:09:58;;;;;;;15.13;7.20;;;10.40;99.90;;;;;;5050022;28;20460;-60
2022/09/30 02:12:31;;;;;;;15.53;10.30;;;10.40;99.90;;;;;;5046267;28;20472;-60
2022/09/30 02:15:02;;;;;;;13.70;6.10;;;10.40;99.90;;;;;;5049218;28;21116;-60
2022/09/30 02:17:35;;;;;;;11.13;7.47;;;10.40;99.90;;;;;;5047943;28;20492;-60
2022/09/30 02:20:08;;;;;;;20.03;8.07;;;10.40;99.90;;;;;;5046849;28;20479;-59
2022/09/30 02:22:43;;;;;;;16.47;8.93;;;10.30;99.90;;;;;;5047518;28;20992;-61
2022/09/30 02:25:19;;;;;;;12.07;8.17;;;10.30;99.90;;;;;;5045978;28;20975;-60
2022/09/30 02:27:49;;;;;;;21.33;9.70;;;10.30;99.90;;;;;;5033774;28;20577;-60
2022/09/30 02:30:16;;;;;;;14.70;10.43;;;10.30;99.90;;;;;;5046587;28;20494;-60
2022/09/30 02:32:48;;;;;;;13.30;9.00;;;10.30;99.90;;;;;;5047708;28;20486;-60
2022/09/30 02:35:19;;;;;;;8.70;6.97;;;10.30;99.90;;;;;;5048327;28;20857;-60
2022/09/30 02:37:51;;;;;;;18.70;10.03;;;10.30;99.90;;;;;;5034351;28;20479;-60
2022/09/30 02:40:24;;;;;;;25.27;10.00;;;10.30;99.90;;;;;;5046973;28;20478;-60
2022/09/30 02:42:51;;;;;;;10.57;7.73;;;10.30;99.90;;;;;;5037961;28;20927;-60
2022/09/30 02:45:22;;;;;;;13.63;10.93;;;;;;;;;;5045856;28;20471;-60
2022/09/30 02:48:02;;;;;;;18.50;10.17;;;10.20;99.90;;;;;;5032084;28;21085;-62
2022/09/30 02:50:33;;;;;;;13.77;8.67;;;10.10;99.90;;;;;;5048634;28;20707;-60
2022/09/30 02:53:12;;;;;;;12.70;6.37;;;10.10;99.90;;;;;;5048752;28;20487;-61
2022/09/30 02:55:55;;;;;;;13.57;8.80;;;10.10;99.90;;;;;;5052199;28;20810;-61
2022/09/30 02:58:24;;;;;;;13.93;10.40;;;10.00;99.90;;;;;;5037732;28;20483;-60
2022/09/30 03:00:53;;;;;;;19.10;9.20;;;10.00;99.90;;;;;;5052604;28;20671;-60
2022/09/30 03:03:25;;;;;;;11.77;7.53;;;10.00;99.90;;;;;;5041083;28;20483;-60
2022/09/30 03:05:52;;;;;;;24.33;8.37;;;10.00;99.90;;;;;;5044734;28;20483;-60
2022/09/30 03:08:19;;;;;;;10.17;7.50;;;9.90;99.90;;;;;;5043784;28;20478;-60
2022/09/30 03:10:49;;;;;;;14.20;7.17;;;9.80;99.90;;;;;;5067266;28;20478;-60
2022/09/30 03:13:49;;;;;;;12.53;10.00;;;9.80;99.90;;;;;;5069949;28;20574;-60
2022/09/30 03:16:26;;;;;;;17.77;10.87;;;9.80;99.90;;;;;;5050023;28;20478;-61
2022/09/30 03:19:08;;;;;;;10.00;6.70;;;9.90;99.90;;;;;;5057834;28;20535;-61
2022/09/30 03:21:51;;;;;;;12.73;8.23;;;9.60;99.90;;;;;;5069988;28;20486;-60
2022/09/30 03:24:34;;;;;;;9.13;6.90;;;9.90;99.90;;;;;;5062151;28;20868;-60
2022/09/30 03:27:13;;;;;;;9.23;8.17;;;9.90;99.90;;;;;;5070759;28;20489;-60
2022/09/30 03:29:47;;;;;;;12.67;7.10;;;10.00;99.90;;;;;;5068125;28;20482;-61
2022/09/30 03:32:27;;;;;;;10.07;7.97;;;10.00;99.90;;;;;;5070533;28;21100;-60
2022/09/30 03:35:04;;;;;;;11.43;6.00;;;10.00;99.90;;;;;;5073553;28;20482;-60
2022/09/30 03:37:39;;;;;;;13.23;7.70;;;10.00;99.90;;;;;;5062689;28;21369;-60
2022/09/30 03:40:11;;;;;;;13.10;6.50;;;10.00;99.90;;;;;;5070974;28;20504;-60
2022/09/30 03:42:43;;;;;;;15.37;7.83;;;9.90;99.90;;;;;;5068772;28;20822;-60
2022/09/30 03:45:19;;;;;;;10.67;6.97;;;9.90;99.90;;;;;;5072604;28;20493;-61
2022/09/30 03:47:49;;;;;;;26.07;10.10;;;9.90;99.90;;;;;;5074185;28;20469;-61
2022/09/30 03:50:21;;;;;;;30.40;10.50;;;9.80;99.90;;;;;;5072648;28;20482;-60
2022/09/30 03:52:49;;;;;;;22.97;9.10;;;9.70;99.90;;;;;;5067923;28;20489;-61
2022/09/30 03:55:16;;;;;;;14.40;10.07;;;9.70;99.90;;;;;;5067161;28;20851;-60
2022/09/30 03:57:43;;;;;;;27.87;8.90;;;;;;;;;;5070265;28;20494;-60
2022/09/30 04:00:11;;;;;;;12.73;7.23;;;9.80;99.90;;;;;;5073985;28;20529;-60
2022/09/30 04:02:38;;;;;;;9.43;7.90;;;9.80;99.90;;;;;;5058554;28;20485;-60
2022/09/30 04:05:06;;;;;;;11.13;7.00;;;9.80;99.90;;;;;;5075307;28;20478;-59
2022/09/30 04:07:35;;;;;;;16.30;6.30;;;9.70;99.90;;;;;;5068456;28;20844;-60
2022/09/30 04:10:02;;;;;;;8.43;6.90;;;9.70;99.90;;;;;;5072425;28;20489;-60
2022/09/30 04:12:29;;;;;;;16.90;10.27;;;9.80;99.90;;;;;;5073702;28;20478;-60
2022/09/30 04:14:55;;;;;;;15.13;6.60;;;9.70;99.90;;;;;;5073528;28;20481;-60
2022/09/30 04:17:22;;;;;;;17.43;10.50;;;9.80;99.90;;;;;;5074451;28;20471;-60
2022/09/30 04:19:49;;;;;;;37.57;9.03;;;9.80;99.90;;;;;;5068153;28;20740;-60
2022/09/30 04:22:16;;;;;;;20.77;10.50;;;9.80;99.90;;;;;;5070476;28;20501;-60
2022/09/30 04:24:44;;;;;;;12.40;8.00;;;9.80;99.90;;;;;;5076129;28;20477;-60
2022/09/30 04:27:11;;;;;;;10.17;6.20;;;9.70;99.90;;;;;;5073259;28;20474;-60
2022/09/30 04:29:37;;;;;;;17.17;6.80;;;9.70;99.90;;;;;;5069557;28;20909;-60
2022/09/30 04:32:04;;;;;;;13.00;6.40;;;9.60;99.90;;;;;;5072327;28;20471;-60
2022/09/30 04:34:31;;;;;;;12.73;7.60;;;9.60;99.90;;;;;;5075196;28;20489;-60
2022/09/30 04:36:58;;;;;;;9.70;4.87;;;9.60;99.90;;;;;;5068537;28;20478;-60
2022/09/30 04:39:24;;;;;;;16.00;8.57;;;9.60;99.90;;;;;;5068786;28;21242;-60
2022/09/30 04:41:52;;;;;;;11.27;7.93;;;9.60;99.90;;;;;;5072309;28;20755;-59
2022/09/30 04:44:20;;;;;;;29.90;10.27;;;9.60;99.90;;;;;;5071669;28;20605;-62
2022/09/30 04:46:47;;;;;;;15.73;7.83;;;9.60;99.90;;;;;;5074976;28;20846;-61
2022/09/30 04:49:13;;;;;;;19.37;9.23;;;9.60;99.90;;;;;;5069588;28;20979;-62
2022/09/30 04:51:42;;;;;;;18.10;6.67;;;9.60;99.90;;;;;;5070761;28;20693;-63
2022/09/30 04:54:09;;;;;;;23.17;8.63;;;9.60;99.90;;;;;;5071245;28;21522;-62
2022/09/30 04:56:36;;;;;;;11.80;7.50;;;;;;;;;;5072414;28;20482;-61
2022/09/30 04:59:04;;;;;;;27.40;8.47;;;9.50;99.90;;;;;;5071903;28;20847;-62
2022/09/30 05:01:31;;;;;;;31.90;10.13;;;9.50;99.90;;;;;;5072897;28;20917;-62
2022/09/30 05:03:58;;;;;;;22.93;8.00;;;9.50;99.90;;;;;;5073062;28;20521;-62
2022/09/30 05:06:25;;;;;;;168.20;21.37;;;;;;;;;;5071937;28;20470;-62
2022/09/30 05:08:52;;;;;;;135.83;17.20;;;;;;;;;;5065824;28;20477;-63
2022/09/30 05:11:21;;;;;;;180.83;22.43;;;9.40;99.90;;;;;;5071913;28;21204;-61
2022/09/30 05:13:49;;;;;;;145.27;15.50;;;9.30;99.90;;;;;;5058616;28;20483;-61
2022/09/30 05:16:18;;;;;;;132.37;17.07;;;9.40;99.90;;;;;;5067539;28;20815;-62
2022/09/30 05:18:45;;;;;;;105.07;14.87;;;;;;;;;;5065284;28;20493;-62
2022/09/30 05:21:13;;;;;;;106.77;14.63;;;9.20;99.90;;;;;;5073310;28;20815;-62
2022/09/30 05:23:40;;;;;;;69.20;12.90;;;;;;;;;;5070986;28;20490;-61
2022/09/30 05:26:07;;;;;;;90.90;12.57;;;;;;;;;;5072365;28;20887;-62
2022/09/30 05:28:34;;;;;;;151.07;16.03;;;;;;;;;;5063873;28;20494;-62
2022/09/30 05:31:02;;;;;;;92.40;14.27;;;;;;;;;;5070926;28;21007;-62
2022/09/30 05:33:30;;;;;;;133.93;19.13;;;8.60;99.90;;;;;;5068935;28;20996;-61
2022/09/30 05:35:59;;;;;;;34.00;9.17;;;8.60;99.90;;;;;;5069551;28;20475;-62
2022/09/30 05:38:26;;;;;;;56.53;12.70;;;;;;;;;;5070278;28;21034;-62
2022/09/30 05:40:53;;;;;;;34.40;8.90;;;8.10;99.90;;;;;;5067608;28;20524;-61
2022/09/30 05:43:20;;;;;;;69.13;13.00;;;;;;;;;;5069579;28;20491;-62
2022/09/30 05:45:52;;;;;;;50.17;11.20;;;8.00;99.90;;;;;;5055760;28;20981;-60
2022/09/30 05:48:20;;;;;;;66.70;14.67;;;;;;;;;;5062907;28;20520;-61
2022/09/30 05:50:49;;;;;;;39.40;8.80;;;8.30;99.90;;;;;;5072130;28;20919;-61
2022/09/30 05:53:17;;;;;;;56.40;13.47;;;8.40;99.90;;;;;;5065162;28;20470;-62
2022/09/30 05:55:45;;;;;;;32.53;9.00;;;8.40;99.90;;;;;;5073167;28;20490;-62
2022/09/30 05:58:12;;;;;;;45.60;14.50;;;8.50;99.90;;;;;;5067003;28;20656;-61
2022/09/30 06:00:41;;;;;;;40.37;10.33;;;8.60;99.90;;;;;;5066576;28;21032;-61
2022/09/30 06:03:08;;;;;;;25.37;10.97;;;8.70;99.90;;;;;;5063201;28;20472;-61
2022/09/30 06:05:35;;;;;;;23.17;8.70;;;8.70;99.90;;;;;;5060948;28;20493;-62
2022/09/30 06:08:05;;;;;;;27.63;11.67;;;8.70;99.90;;;;;;5064018;28;20486;-62
2022/09/30 06:10:34;;;;;;;23.23;10.43;;;8.80;99.90;;;;;;5065870;28;20582;-62
2022/09/30 06:13:02;;;;;;;20.27;8.97;;;8.80;99.90;;;;;;5070690;28;20981;-62
2022/09/30 06:15:28;;;;;;;21.53;8.37;;;8.70;99.90;;;;;;5068149;28;20478;-62
2022/09/30 06:17:55;;;;;;;28.23;11.67;;;8.70;99.90;;;;;;5065093;28;20479;-62
2022/09/30 06:20:22;;;;;;;47.83;15.87;;;8.70;99.90;;;;;;5072364;28;20490;-62
2022/09/30 06:22:49;;;;;;;34.77;9.20;;;8.70;99.90;;;;;;5063018;28;20482;-61
2022/09/30 06:25:17;;;;;;;30.60;10.87;;;8.70;99.90;;;;;;5072059;28;20482;-62
2022/09/30 06:27:45;;;;;;;25.80;10.70;;;8.60;99.90;;;;;;5071769;28;20561;-61
2022/09/30 06:30:12;;;;;;;22.37;9.77;;;8.50;99.90;;;;;;5074255;28;20860;-61
2022/09/30 06:32:39;;;;;;;37.67;14.30;;;8.50;99.90;;;;;;5073710;28;20892;-62
2022/09/30 06:35:06;;;;;;;10.67;6.97;;;8.40;99.90;;;;;;5074906;28;20867;-62
2022/09/30 06:37:33;;;;;;;16.43;6.50;;;8.40;99.90;;;;;;5076196;28;20485;-61
2022/09/30 06:40:00;;;;;;;23.93;6.73;;;8.50;99.90;;;;;;5064567;28;21003;-63
2022/09/30 06:42:28;;;;;;;20.13;9.63;;;8.60;99.90;;;;;;5074632;28;21021;-62
2022/09/30 06:44:55;;;;;;;17.80;7.47;;;8.70;99.90;;;;;;5073955;28;20497;-62
2022/09/30 06:47:22;;;;;;;28.00;11.10;;;8.80;99.90;;;;;;5075636;28;20478;-62
2022/09/30 06:49:52;;;;;;;19.57;9.27;;;8.90;99.90;;;;;;5069824;28;20482;-62
2022/09/30 06:52:18;;;;;;;24.20;10.93;;;8.90;99.90;;;;;;5072031;28;20830;-62
2022/09/30 06:54:46;;;;;;;21.80;7.60;;;9.00;99.90;;;;;;5064120;28;20478;-62
2022/09/30 06:57:12;;;;;;;19.53;9.77;;;9.00;99.90;;;;;;5072470;28;20482;-62
2022/09/30 06:59:41;;;;;;;16.00;7.30;;;9.00;99.90;;;;;;5073350;28;20539;-62
2022/09/30 07:02:09;;;;;;;13.80;7.67;;;9.00;99.90;;;;;;5058316;28;20871;-62
2022/09/30 07:04:36;;;;;;;22.10;7.17;;;9.00;99.90;;;;;;5075200;28;20474;-61
2022/09/30 07:07:02;;;;;;;19.30;8.80;;;9.10;99.90;;;;;;5072047;28;20466;-62
2022/09/30 07:09:30;;;;;;;77.47;15.47;;;10.00;99.90;;;;;;5070550;28;20493;-62
2022/09/30 07:11:57;;;;;;;27.63;8.67;;;9.10;99.90;;;;;;5073769;28;21139;-61
2022/09/30 07:14:24;;;;;;;19.43;9.30;;;9.20;99.90;;;;;;5054303;28;20490;-62
2022/09/30 07:16:52;;;;;;;14.53;7.93;;;9.30;99.90;;;;;;5070152;28;20493;-61
2022/09/30 07:19:21;;;;;;;31.43;12.23;;;9.30;99.90;;;;;;5065632;28;20489;-62
2022/09/30 07:21:48;;;;;;;42.23;9.50;;;9.40;99.90;;;;;;5070056;28;20474;-61
2022/09/30 07:24:15;;;;;;;42.50;11.53;;;9.50;99.90;;;;;;5059968;28;20482;-61
2022/09/30 07:26:43;;;;;;;21.87;9.07;;;9.50;99.90;;;;;;5072315;28;20794;-61
2022/09/30 07:29:11;;;;;;;22.40;8.00;;;9.60;99.90;;;;;;5071301;28;20527;-62
2022/09/30 07:31:38;;;;;;;13.03;7.70;;;9.70;99.90;;;;;;5069688;28;20566;-61
2022/09/30 07:34:08;;;;;;;13.47;7.10;;;9.60;99.90;;;;;;5074048;28;21009;-61
2022/09/30 07:36:35;;;;;;;10.83;7.10;;;9.50;99.90;;;;;;5072162;28;20496;-61
2022/09/30 07:39:05;;;;;;;15.53;8.47;;;9.60;99.90;;;;;;5071077;28;21210;-61
2022/09/30 07:41:31;;;;;;;15.53;8.37;;;9.70;99.90;;;;;;5074368;28;21130;-62
2022/09/30 07:43:58;;;;;;;17.90;6.93;;;9.80;99.90;;;;;;5065252;28;20963;-61
2022/09/30 07:46:28;;;;;;;20.87;9.63;;;10.60;99.90;;;;;;5062395;28;20773;-61
2022/09/30 07:48:58;;;;;;;25.17;7.80;;;10.10;99.90;;;;;;5067470;28;20482;-61
2022/09/30 07:51:30;;;;;;;19.80;11.17;;;10.20;99.90;;;;;;5072378;28;20949;-61
2022/09/30 07:53:59;;;;;;;16.50;6.50;;;10.30;99.90;;;;;;5066234;28;20493;-61
2022/09/30 07:56:27;;;;;;;17.20;8.50;;;10.40;99.90;;;;;;5068746;28;21133;-61
2022/09/30 07:58:54;;;;;;;13.37;8.47;;;9.70;99.90;;;;;;5077134;28;20975;-61
2022/09/30 08:01:22;;;;;;;28.93;10.63;;;10.50;99.90;;;;;;5071356;28;21070;-61
2022/09/30 08:03:52;;;;;;;17.30;7.00;;;10.70;99.90;;;;;;5071815;28;20478;-61
2022/09/30 08:06:20;;;;;;;20.13;13.30;;;10.70;99.90;;;;;;5069952;28;20473;-61
2022/09/30 08:08:50;;;;;;;12.83;9.13;;;10.80;99.90;;;;;;5068761;28;20478;-61
2022/09/30 08:11:17;;;;;;;27.17;10.83;;;10.90;99.90;;;;;;5069259;28;20485;-61
2022/09/30 08:13:43;;;;;;;11.87;8.47;;;11.50;99.90;;;;;;5061595;28;20481;-61
2022/09/30 08:16:10;;;;;;;15.83;7.90;;;11.00;99.90;;;;;;5075972;28;20474;-61
2022/09/30 08:18:37;;;;;;;10.40;7.30;;;11.10;99.90;;;;;;5068974;28;20483;-61
2022/09/30 08:21:05;;;;;;;14.33;7.60;;;11.20;99.90;;;;;;5073141;28;20904;-61
2022/09/30 08:23:32;;;;;;;9.70;7.00;;;11.30;99.90;;;;;;5067012;28;20549;-61
2022/09/30 08:26:05;;;;;;;7.40;6.63;;;11.30;99.90;;;;;;5072175;28;20499;-61
2022/09/30 08:28:33;;;;;;;10.20;6.50;;;11.50;99.90;;;;;;5066331;28;20487;-61
2022/09/30 08:31:06;;;;;;;14.90;8.27;;;11.50;99.90;;;;;;5054477;28;20482;-61
2022/09/30 08:33:33;;;;;;;7.47;6.40;;;11.50;99.90;;;;;;5071315;28;20474;-61
2022/09/30 08:36:04;;;;;;;14.00;7.83;;;11.40;99.90;;;;;;5057314;28;20477;-61
2022/09/30 08:38:31;;;;;;;8.67;7.80;;;11.50;99.90;;;;;;5062036;28;21445;-62
2022/09/30 08:41:11;;;;;;;8.90;6.50;;;11.70;99.90;;;;;;5063930;28;20493;-61
2022/09/30 08:43:47;;;;;;;10.97;5.77;;;11.50;99.90;;;;;;5071785;28;20482;-61
2022/09/30 08:46:22;;;;;;;14.00;9.87;;;11.40;99.90;;;;;;5068079;28;20654;-61
2022/09/30 08:48:56;;;;;;;26.50;7.87;;;11.40;99.90;;;;;;5066843;28;20490;-61
2022/09/30 08:51:30;;;;;;;14.17;10.20;;;11.40;99.90;;;;;;5062366;28;20497;-61
2022/09/30 08:54:01;;;;;;;7.73;6.47;;;11.50;99.90;;;;;;5064016;28;20486;-61
2022/09/30 08:56:31;;;;;;;9.10;7.73;;;11.60;99.90;;;;;;5060718;28;20482;-61
2022/09/30 08:59:03;;;;;;;7.17;6.43;;;12.10;99.90;;;;;;5069324;28;20482;-61
2022/09/30 09:01:32;;;;;;;14.70;9.00;;;12.00;99.90;;;;;;5073097;28;20509;-61
2022/09/30 09:04:01;;;;;;;9.63;6.67;;;12.10;99.90;;;;;;5069427;28;20478;-61
2022/09/30 09:06:34;;;;;;;12.50;8.77;;;12.30;99.90;;;;;;5071618;28;20647;-62
2022/09/30 09:09:11;;;;;;;9.33;7.60;;;12.40;99.90;;;;;;5064704;28;20493;-62
2022/09/30 09:11:59;;;;;;;9.50;8.07;;;12.10;99.90;;;;;;5072008;28;21024;-61
2022/09/30 09:14:39;;;;;;;10.90;9.20;;;12.10;99.90;;;;;;5063088;28;20787;-61
2022/09/30 09:17:18;;;;;;;8.30;6.47;;;12.00;99.90;;;;;;5054428;28;20470;-62
2022/09/30 09:19:52;;;;;;;9.53;7.67;;;11.90;99.90;;;;;;5074462;28;20485;-61
2022/09/30 09:22:19;;;;;;;43.27;13.10;;;12.00;99.90;;;;;;5069167;28;20894;-61
2022/09/30 09:24:49;;;;;;;9.67;7.90;;;12.20;99.90;;;;;;5074037;28;20825;-61
2022/09/30 09:27:22;;;;;;;13.53;9.97;;;12.40;99.90;;;;;;5062689;28;20862;-61
2022/09/30 09:30:00;;;;;;;14.20;7.30;;;12.80;99.90;;;;;;5069246;28;20599;-62
2022/09/30 09:32:28;;;;;;;11.93;9.83;;;13.10;99.90;;;;;;5068795;28;20479;-61
2022/09/30 09:35:00;;;;;;;12.67;7.37;;;13.40;99.90;;;;;;5071388;28;20699;-61
2022/09/30 09:40:29;;;;;;;13.03;8.00;;;14.00;99.90;;;;;;5069535;28;20935;-62
2022/09/30 09:43:11;;;;;;;12.10;6.50;;;14.00;99.90;;;;;;5058214;28;20541;-62
2022/09/30 09:45:46;;;;;;;11.27;6.33;;;14.60;99.90;;;;;;5060992;28;20481;-62
2022/09/30 09:48:16;;;;;;;9.30;8.37;;;14.80;99.90;;;;;;5057705;28;20488;-62
2022/09/30 09:50:53;;;;;;;22.10;7.90;;;15.10;99.90;;;;;;5078654;28;21118;-62
2022/09/30 09:53:37;;;;;;;9.67;8.70;;;15.10;99.90;;;;;;5069154;28;20493;-62
2022/09/30 09:56:17;;;;;;;12.30;6.90;;;15.50;99.90;;;;;;5070470;28;21026;-62
2022/09/30 09:59:12;;;;;;;8.63;6.33;;;15.80;99.90;;;;;;5067229;28;20486;-62
2022/09/30 10:01:41;;;;;;;7.17;6.50;;;15.90;99.90;;;;;;5072487;28;20482;-62
2022/09/30 10:04:17;;;;;;;7.03;6.40;;;16.10;99.90;;;;;;5067660;28;20828;-62
2022/09/30 10:06:51;;;;;;;14.30;6.57;;;16.60;99.90;;;;;;5067930;28;20481;-62
2022/09/30 10:09:30;;;;;;;8.57;7.70;;;16.80;99.90;;;;;;5066885;28;20491;-62
2022/09/30 10:12:28;;;;;;;4.50;4.10;;;16.90;97.00;;;;;;5069995;28;20832;-62
2022/09/30 10:15:01;;;;;;;19.77;4.87;;;17.00;96.60;;;;;;5071931;28;20469;-62
2022/09/30 10:17:30;;;;;;;6.17;5.67;;;17.10;97.60;;;;;;5060191;28;20809;-62
2022/09/30 10:20:05;;;;;;;4.13;3.43;;;16.90;94.90;;;;;;5067161;28;20474;-62
2022/09/30 10:22:33;;;;;;;3.30;3.10;;;16.80;93.50;;;;;;5059657;28;20474;-61
2022/09/30 10:25:17;;;;;;;4.07;3.60;;;16.70;94.40;;;;;;5070989;28;20475;-62
2022/09/30 10:27:53;;;;;;;5.90;5.10;;;16.70;94.50;;;;;;5066292;28;20486;-62
2022/09/30 10:30:41;;;;;;;6.03;5.53;;;17.10;97.10;;;;;;5071162;28;20481;-62
2022/09/30 10:33:18;;;;;;;4.80;4.30;;;17.40;96.90;;;;;;5070237;28;20944;-62
2022/09/30 10:35:55;;;;;;;4.20;3.60;;;17.50;95.10;;;;;;5071521;28;20654;-62
2022/09/30 10:38:24;;;;;;;7.27;6.57;;;17.30;93.10;;;;;;5066039;28;20470;-62
2022/09/30 10:40:52;;;;;;;4.40;4.00;;;17.30;94.60;;;;;;5070903;28;20479;-62
2022/09/30 10:43:26;;;;;;;10.63;6.20;;;17.40;95.00;;;;;;5070256;28;20486;-62
2022/09/30 10:45:58;;;;;;;4.43;4.13;;;17.30;94.40;;;;;;5065508;28;20974;-62
2022/09/30 10:48:27;;;;;;;9.57;4.87;;;17.20;94.40;;;;;;5070741;28;20483;-62
2022/09/30 10:50:56;;;;;;;4.93;4.47;;;17.20;96.30;;;;;;5071046;28;20490;-62
2022/09/30 10:53:25;;;;;;;5.00;4.60;;;17.60;97.00;;;;;;5060089;28;20798;-62
2022/09/30 10:55:53;;;;;;;12.67;3.40;;;18.10;97.40;;;;;;5083766;28;20833;-62
2022/09/30 10:58:29;;;;;;;5.83;5.23;;;18.10;92.30;;;;;;5055695;28;20570;-62
2022/09/30 11:01:01;;;;;;;7.23;3.57;;;18.20;92.30;;;;;;5069823;28;20568;-62
2022/09/30 11:03:34;;;;;;;4.00;3.60;;;18.10;92.20;;;;;;5066144;28;20867;-62
2022/09/30 11:06:01;;;;;;;3.60;3.30;;;18.00;91.40;;;;;;5058001;28;20558;-62
2022/09/30 11:08:35;;;;;;;19.27;4.20;;;18.00;92.10;;;;;;5067305;28;20854;-62
2022/09/30 11:11:09;;;;;;;4.30;3.90;;;18.00;91.90;;;;;;5025711;28;20502;-62
2022/09/30 11:13:40;;;;;;;3.57;3.27;;;18.10;92.10;;;;;;5037495;28;20488;-62
2022/09/30 11:16:16;;;;;;;5.03;3.00;;;18.30;94.10;;;;;;5045012;28;21035;-62
2022/09/30 11:18:47;;;;;;;4.10;3.70;;;18.60;92.90;;;;;;5037878;28;20490;-62
2022/09/30 11:21:19;;;;;;;4.87;4.47;;;18.50;89.50;;;;;;5034627;28;20491;-63
2022/09/30 11:23:51;;;;;;;4.13;3.83;;;18.80;90.80;;;;;;5035884;28;20491;-62
2022/09/30 11:26:30;;;;;;;11.47;4.57;;;19.00;92.50;;;;;;5039249;28;20988;-62
2022/09/30 11:29:15;;;;;;;2.90;2.70;;;19.00;88.80;;;;;;5030959;28;21098;-63
2022/09/30 11:31:51;;;;;;;10.20;3.77;;;18.70;88.70;;;;;;5050305;28;20760;-62
2022/09/30 11:34:37;;;;;;;5.43;5.03;;;18.90;88.90;;;;;;5042506;28;20492;-62
2022/09/30 11:37:15;;;;;;;4.27;2.70;;;19.10;89.40;;;;;;5025627;28;20495;-62
2022/09/30 11:40:04;;;;;;;3.87;3.57;;;19.30;89.30;;;;;;5023584;28;20476;-63
2022/09/30 11:42:37;;;;;;;4.30;3.03;;;19.40;89.70;;;;;;5037773;28;20469;-63
2022/09/30 11:45:16;;;;;;;6.13;3.43;;;19.40;85.60;;;;;;5035604;28;20472;-62
2022/09/30 11:47:56;;;;;;;8.53;4.33;;;19.10;87.30;;;;;;5028530;28;20472;-63
2022/09/30 11:50:33;;;;;;;5.10;4.60;;;19.00;87.00;;;;;;5036166;28;20494;-62
2022/09/30 11:53:12;;;;;;;2.77;2.43;;;19.20;85.80;;;;;;5040099;28;20634;-63
2022/09/30 11:56:03;;;;;;;4.63;3.00;;;19.30;86.10;;;;;;5032572;28;20487;-63
2022/09/30 11:58:34;;;;;;;7.67;3.93;;;19.00;82.40;;;;;;5031200;28;20478;-63
2022/09/30 12:01:14;;;;;;;8.87;2.87;;;19.20;86.00;;;;;;5038095;28;20484;-63
2022/09/30 12:03:49;;;;;;;3.60;3.30;;;19.50;86.90;;;;;;5037568;28;20480;-62
2022/09/30 12:06:26;;;;;;;8.53;3.40;;;19.80;84.40;;;;;;5041012;28;20524;-63
2022/09/30 12:08:56;;;;;;;3.50;3.20;;;19.90;81.90;;;;;;5034858;28;20519;-62
2022/09/30 12:11:33;;;;;;;5.80;5.30;;;19.60;76.00;;;;;;5034181;28;20480;-63
2022/09/30 12:14:05;;;;;;;3.03;2.53;;;19.20;76.40;;;;;;5033712;28;20483;-63
2022/09/30 12:16:34;;;;;;;4.77;3.50;;;18.80;78.00;;;;;;5046684;28;20481;-63
2022/09/30 12:19:13;;;;;;;3.83;2.50;;;18.50;77.80;;;;;;5040943;28;21147;-63
2022/09/30 12:21:46;;;;;;;3.70;3.40;;;18.60;80.80;;;;;;5037129;28;20643;-63
2022/09/30 12:24:19;;;;;;;11.70;5.50;;;18.70;78.70;;;;;;5037563;28;20498;-63
2022/09/30 12:26:46;;;;;;;5.33;3.80;;;;;;;;;;5033828;28;20492;-62
2022/09/30 12:32:31;;;;;;;5.80;2.90;;;19.10;80.50;;;;;;5035942;28;20582;-63
2022/09/30 12:35:14;;;;;;;3.53;2.90;;;18.90;76.50;;;;;;5035306;28;20479;-63
2022/09/30 12:37:53;;;;;;;3.40;3.10;;;19.10;79.90;;;;;;5024399;28;20476;-62
2022/09/30 12:40:50;;;;;;;5.73;4.80;;;19.20;81.00;;;;;;5034080;28;20484;-62
2022/09/30 12:43:59;;;;;;;10.33;6.03;;;19.10;80.30;;;;;;5036560;28;20472;-63
2022/09/30 12:46:51;;;;;;;4.50;4.10;;;19.20;78.80;;;;;;5012841;28;20919;-62
2022/09/30 12:49:22;;;;;;;10.03;3.07;;;19.50;75.80;;;;;;5010107;28;20491;-63
2022/09/30 12:51:54;;;;;;;3.57;3.27;;;19.70;76.00;;;;;;5033091;28;20493;-63
2022/09/30 12:54:25;;;;;;;4.60;4.17;;;20.00;79.60;;;;;;5034446;28;20492;-63
2022/09/30 12:56:58;;;;;;;7.80;3.17;;;20.20;76.80;;;;;;5034851;28;20488;-63
2022/09/30 12:59:27;;;;;;;4.37;4.07;;;20.50;77.20;;;;;;5028998;28;20498;-63
2022/09/30 13:01:55;;;;;;;7.53;2.00;;;20.70;75.80;;;;;;5035448;28;20508;-63
2022/09/30 13:04:34;;;;;;;3.13;2.47;;;20.80;75.00;;;;;;5032728;28;20844;-63
2022/09/30 13:07:33;;;;;;;7.53;1.60;;;20.60;72.80;;;;;;5029189;28;21003;-63
2022/09/30 13:10:16;;;;;;;11.80;2.47;;;20.60;73.40;;;;;;5037330;28;20455;-63
2022/09/30 13:12:45;;;;;;;6.83;3.03;;;20.70;74.80;;;;;;5022488;28;20478;-63
2022/09/30 13:15:40;;;;;;;3.83;2.53;;;20.70;75.20;;;;;;5021508;28;20468;-63
2022/09/30 13:18:44;;;;;;;3.40;2.00;;;20.80;77.10;;;;;;5032446;28;20471;-63